Terminal Aerodrome Forecast
Issued by NWS

Home | Current Version | Previous Version | Text Only | Print | Product List | Glossary On
Versions: 1 2 3 4 5 6 7 8 9 10 11 12 13 14 15 16 17 18
000
FTUS43 KGRB 211100
TAFMTW
TAF
KMTW 211120Z 2112/2212 20007KT 6SM BR SCT100
      TEMPO 2112/2114 2SM BR
     FM211500 17010G18KT 6SM HZ SCT040 SCT120
      TEMPO 2115/2119 BKN040
     FM212300 17006KT P6SM FEW050
     FM220900 17005KT P6SM SCT250 WS015/21030KT=

USA.gov is the U.S. government's official web portal to all federal, state and local government web resources and services.